Terminal Aerodrome Forecast
Issued by NWS

Home | Current Version | Previous Version | Text Only | Print | Product List | Glossary On
Versions: 1 2 3 4 5 6 7 8 9 10 11 12 13 14 15
000
FTUS46 KPQR 280017 AAA
TAFONP
TAF AMD
KONP 280017Z 2800/2824 26012G27KT P6SM -SHRA SCT020 BKN035 OVC045
      TEMPO 2800/2803 3SM -SHRA BKN025 OVC035
     FM280300 26010KT P6SM -SHRA SCT025 BKN045
     FM280600 24010KT P6SM -SHRA SCT015 BKN025 OVC035
     FM282000 24010KT P6SM -SHRA SCT025 BKN035 BKN045=

USA.gov is the U.S. government's official web portal to all federal, state and local government web resources and services.